sensor_id;sensor_type;location;lat;lon;timestamp;temperature;humidity
68977;SHT31;56029;52.568;13.588;2022-12-05T00:00:28;2.39;99.99
68977;SHT31;56029;52.568;13.588;2022-12-05T00:03:05;2.41;99.99
68977;SHT31;56029;52.568;13.588;2022-12-05T00:05:31;2.38;99.99
68977;SHT31;56029;52.568;13.588;2022-12-05T00:07:56;2.39;99.99
68977;SHT31;56029;52.568;13.588;2022-12-05T00:10:22;2.33;99.99
68977;SHT31;56029;52.568;13.588;2022-12-05T00:12:47;2.33;99.99
68977;SHT31;56029;52.568;13.588;2022-12-05T00:15:13;2.32;99.99
68977;SHT31;56029;52.568;13.588;2022-12-05T00:17:39;2.29;99.99
68977;SHT31;56029;52.568;13.588;2022-12-05T00:20:06;2.32;99.99
68977;SHT31;56029;52.568;13.588;2022-12-05T00:22:34;2.36;99.99
68977;SHT31;56029;52.568;13.588;2022-12-05T00:25:00;2.42;99.99
68977;SHT31;56029;52.568;13.588;2022-12-05T00:27:26;2.43;99.99
68977;SHT31;56029;52.568;13.588;2022-12-05T00:29:51;2.50;99.99
68977;SHT31;56029;52.568;13.588;2022-12-05T00:32:17;2.41;99.99
68977;SHT31;56029;52.568;13.588;2022-12-05T00:34:42;2.36;99.99
68977;SHT31;56029;52.568;13.588;2022-12-05T00:37:08;2.35;99.99
68977;SHT31;56029;52.568;13.588;2022-12-05T00:39:33;2.42;99.99
68977;SHT31;56029;52.568;13.588;2022-12-05T00:41:59;2.48;99.99
68977;SHT31;56029;52.568;13.588;2022-12-05T00:44:24;2.45;99.99
68977;SHT31;56029;52.568;13.588;2022-12-05T00:46:50;2.41;99.99
68977;SHT31;56029;52.568;13.588;2022-12-05T00:49:15;2.43;99.99
68977;SHT31;56029;52.568;13.588;2022-12-05T00:51:43;2.46;99.99
68977;SHT31;56029;52.568;13.588;2022-12-05T00:54:11;2.50;99.99
68977;SHT31;56029;52.568;13.588;2022-12-05T00:56:38;2.45;99.99
68977;SHT31;56029;52.568;13.588;2022-12-05T00:59:04;2.45;99.99
68977;SHT31;56029;52.568;13.588;2022-12-05T01:01:33;2.41;99.99
68977;SHT31;56029;52.568;13.588;2022-12-05T01:04:02;2.43;99.99
68977;SHT31;56029;52.568;13.588;2022-12-05T01:06:28;2.50;99.99
68977;SHT31;56029;52.568;13.588;2022-12-05T01:08:55;2.48;99.99
68977;SHT31;56029;52.568;13.588;2022-12-05T01:11:22;2.48;99.99
68977;SHT31;56029;52.568;13.588;2022-12-05T01:13:48;2.52;99.99
68977;SHT31;56029;52.568;13.588;2022-12-05T01:16:20;2.48;99.99
68977;SHT31;56029;52.568;13.588;2022-12-05T01:18:46;2.52;99.99
68977;SHT31;56029;52.568;13.588;2022-12-05T01:21:12;2.56;99.99
68977;SHT31;56029;52.568;13.588;2022-12-05T01:23:37;2.57;99.99
68977;SHT31;56029;52.568;13.588;2022-12-05T01:26:05;2.53;99.99
68977;SHT31;56029;52.568;13.588;2022-12-05T01:28:31;2.59;99.99
68977;SHT31;56029;52.568;13.588;2022-12-05T01:30:56;2.59;99.99
68977;SHT31;56029;52.568;13.588;2022-12-05T01:33:22;2.52;99.99
68977;SHT31;56029;52.568;13.588;2022-12-05T01:35:48;2.60;99.99
68977;SHT31;56029;52.568;13.588;2022-12-05T01:38:13;2.60;99.99
68977;SHT31;56029;52.568;13.588;2022-12-05T01:40:39;2.59;99.99
68977;SHT31;56029;52.568;13.588;2022-12-05T01:43:13;2.57;99.99
68977;SHT31;56029;52.568;13.588;2022-12-05T01:45:41;2.63;99.99
68977;SHT31;56029;52.568;13.588;2022-12-05T01:48:12;2.62;99.99
68977;SHT31;56029;52.568;13.588;2022-12-05T01:50:39;2.66;99.99
68977;SHT31;56029;52.568;13.588;2022-12-05T01:53:05;2.64;99.99
68977;SHT31;56029;52.568;13.588;2022-12-05T01:55:33;2.67;99.99
68977;SHT31;56029;52.568;13.588;2022-12-05T01:58:00;2.59;99.99
68977;SHT31;56029;52.568;13.588;2022-12-05T02:00:26;2.62;99.99
68977;SHT31;56029;52.568;13.588;2022-12-05T02:03:04;2.63;99.99
68977;SHT31;56029;52.568;13.588;2022-12-05T02:05:33;2.66;99.99
68977;SHT31;56029;52.568;13.588;2022-12-05T02:08:02;2.57;99.99
68977;SHT31;56029;52.568;13.588;2022-12-05T02:10:34;2.66;99.99
68977;SHT31;56029;52.568;13.588;2022-12-05T02:13:29;2.63;99.99
68977;SHT31;56029;52.568;13.588;2022-12-05T02:16:00;2.57;99.99
68977;SHT31;56029;52.568;13.588;2022-12-05T02:18:40;2.62;99.99
68977;SHT31;56029;52.568;13.588;2022-12-05T02:24:09;2.59;99.99
68977;SHT31;56029;52.568;13.588;2022-12-05T02:26:58;2.64;99.99
68977;SHT31;56029;52.568;13.588;2022-12-05T02:29:50;2.69;99.99
68977;SHT31;56029;52.568;13.588;2022-12-05T02:32:32;2.69;99.99
68977;SHT31;56029;52.568;13.588;2022-12-05T02:40:49;2.67;99.99
68977;SHT31;56029;52.568;13.588;2022-12-05T02:43:25;2.63;99.99
68977;SHT31;56029;52.568;13.588;2022-12-05T02:45:57;2.66;99.99
68977;SHT31;56029;52.568;13.588;2022-12-05T02:48:26;2.66;99.99
68977;SHT31;56029;52.568;13.588;2022-12-05T02:50:53;2.62;99.99
68977;SHT31;56029;52.568;13.588;2022-12-05T02:53:22;2.57;99.99
68977;SHT31;56029;52.568;13.588;2022-12-05T02:55:50;2.62;99.99
68977;SHT31;56029;52.568;13.588;2022-12-05T02:58:22;2.59;99.99
68977;SHT31;56029;52.568;13.588;2022-12-05T03:00:55;2.63;99.99
68977;SHT31;56029;52.568;13.588;2022-12-05T03:03:21;2.64;99.99
68977;SHT31;56029;52.568;13.588;2022-12-05T03:05:59;2.54;99.99
68977;SHT31;56029;52.568;13.588;2022-12-05T03:08:30;2.54;99.99
68977;SHT31;56029;52.568;13.588;2022-12-05T03:10:58;2.59;99.99
68977;SHT31;56029;52.568;13.588;2022-12-05T03:13:28;2.59;99.99
68977;SHT31;56029;52.568;13.588;2022-12-05T03:15:59;2.56;99.99
68977;SHT31;56029;52.568;13.588;2022-12-05T03:18:29;2.48;99.99
68977;SHT31;56029;52.568;13.588;2022-12-05T03:21:10;2.46;99.99
68977;SHT31;56029;52.568;13.588;2022-12-05T03:23:43;2.49;99.99
68977;SHT31;56029;52.568;13.588;2022-12-05T03:28:55;2.48;99.99
68977;SHT31;56029;52.568;13.588;2022-12-05T03:31:39;2.53;99.99
68977;SHT31;56029;52.568;13.588;2022-12-05T03:34:07;2.49;99.99
68977;SHT31;56029;52.568;13.588;2022-12-05T03:36:43;2.53;99.99
68977;SHT31;56029;52.568;13.588;2022-12-05T03:39:20;2.56;99.99
68977;SHT31;56029;52.568;13.588;2022-12-05T03:42:03;2.50;99.99
68977;SHT31;56029;52.568;13.588;2022-12-05T03:44:41;2.56;99.99
68977;SHT31;56029;52.568;13.588;2022-12-05T03:50:18;2.54;99.99
68977;SHT31;56029;52.568;13.588;2022-12-05T03:52:54;2.45;99.99
68977;SHT31;56029;52.568;13.588;2022-12-05T03:55:22;2.46;99.99
68977;SHT31;56029;52.568;13.588;2022-12-05T03:58:01;2.45;99.99
68977;SHT31;56029;52.568;13.588;2022-12-05T04:00:31;2.50;99.99
68977;SHT31;56029;52.568;13.588;2022-12-05T04:03:09;2.59;99.99
68977;SHT31;56029;52.568;13.588;2022-12-05T04:08:25;2.43;99.99
68977;SHT31;56029;52.568;13.588;2022-12-05T04:10:58;2.43;99.99
68977;SHT31;56029;52.568;13.588;2022-12-05T04:13:33;2.46;99.99
68977;SHT31;56029;52.568;13.588;2022-12-05T04:16:06;2.50;99.99
68977;SHT31;56029;52.568;13.588;2022-12-05T04:19:05;2.49;99.99
68977;SHT31;56029;52.568;13.588;2022-12-05T04:21:41;2.53;99.99
68977;SHT31;56029;52.568;13.588;2022-12-05T04:24:12;2.54;99.99
68977;SHT31;56029;52.568;13.588;2022-12-05T04:27:08;2.53;99.99
68977;SHT31;56029;52.568;13.588;2022-12-05T04:29:42;2.56;99.99
68977;SHT31;56029;52.568;13.588;2022-12-05T04:32:10;2.52;99.99
68977;SHT31;56029;52.568;13.588;2022-12-05T04:34:38;2.52;99.99
68977;SHT31;56029;52.568;13.588;2022-12-05T04:37:14;2.54;99.99
68977;SHT31;56029;52.568;13.588;2022-12-05T04:39:58;2.60;99.99
68977;SHT31;56029;52.568;13.588;2022-12-05T04:42:27;2.62;99.99
68977;SHT31;56029;52.568;13.588;2022-12-05T04:44:58;2.59;99.99
68977;SHT31;56029;52.568;13.588;2022-12-05T04:47:30;2.59;99.99
68977;SHT31;56029;52.568;13.588;2022-12-05T04:49:57;2.62;99.99
68977;SHT31;56029;52.568;13.588;2022-12-05T04:52:24;2.60;99.99
68977;SHT31;56029;52.568;13.588;2022-12-05T04:55:18;2.60;99.99
68977;SHT31;56029;52.568;13.588;2022-12-05T05:00:30;2.60;99.99
68977;SHT31;56029;52.568;13.588;2022-12-05T05:03:10;2.64;99.99
68977;SHT31;56029;52.568;13.588;2022-12-05T05:05:39;2.52;99.99
68977;SHT31;56029;52.568;13.588;2022-12-05T05:08:15;2.49;99.99
68977;SHT31;56029;52.568;13.588;2022-12-05T05:10:51;2.57;99.99
68977;SHT31;56029;52.568;13.588;2022-12-05T05:13:19;2.57;99.99
68977;SHT31;56029;52.568;13.588;2022-12-05T05:15:44;2.57;99.99
68977;SHT31;56029;52.568;13.588;2022-12-05T05:18:10;2.56;99.99
68977;SHT31;56029;52.568;13.588;2022-12-05T05:20:35;2.57;99.99
68977;SHT31;56029;52.568;13.588;2022-12-05T05:23:01;2.56;99.99
68977;SHT31;56029;52.568;13.588;2022-12-05T05:25:26;2.60;99.99
68977;SHT31;56029;52.568;13.588;2022-12-05T05:27:54;2.60;99.99
68977;SHT31;56029;52.568;13.588;2022-12-05T05:30:22;2.53;99.99
68977;SHT31;56029;52.568;13.588;2022-12-05T05:32:47;2.50;99.99
68977;SHT31;56029;52.568;13.588;2022-12-05T05:35:14;2.56;99.99
68977;SHT31;56029;52.568;13.588;2022-12-05T05:37:39;2.53;99.99
68977;SHT31;56029;52.568;13.588;2022-12-05T05:40:07;2.56;99.99
68977;SHT31;56029;52.568;13.588;2022-12-05T05:42:33;2.54;99.99
68977;SHT31;56029;52.568;13.588;2022-12-05T05:44:58;2.53;99.99
68977;SHT31;56029;52.568;13.588;2022-12-05T05:47:24;2.60;99.99
68977;SHT31;56029;52.568;13.588;2022-12-05T05:49:49;2.57;99.99
68977;SHT31;56029;52.568;13.588;2022-12-05T05:52:15;2.60;99.99
68977;SHT31;56029;52.568;13.588;2022-12-05T05:54:41;2.57;99.99
68977;SHT31;56029;52.568;13.588;2022-12-05T05:57:06;2.60;99.99
68977;SHT31;56029;52.568;13.588;2022-12-05T05:59:32;2.54;99.99
68977;SHT31;56029;52.568;13.588;2022-12-05T06:01:57;2.63;99.99
68977;SHT31;56029;52.568;13.588;2022-12-05T06:04:23;2.64;99.99
68977;SHT31;56029;52.568;13.588;2022-12-05T06:06:48;2.64;99.99
68977;SHT31;56029;52.568;13.588;2022-12-05T06:09:14;2.66;99.99
68977;SHT31;56029;52.568;13.588;2022-12-05T06:11:41;2.69;99.99
68977;SHT31;56029;52.568;13.588;2022-12-05T06:14:07;2.72;99.99
68977;SHT31;56029;52.568;13.588;2022-12-05T06:16:32;2.75;99.99
68977;SHT31;56029;52.568;13.588;2022-12-05T06:18:58;2.66;99.99
68977;SHT31;56029;52.568;13.588;2022-12-05T06:21:24;2.62;99.99
68977;SHT31;56029;52.568;13.588;2022-12-05T06:23:50;2.69;99.99
68977;SHT31;56029;52.568;13.588;2022-12-05T06:26:18;2.64;99.99
68977;SHT31;56029;52.568;13.588;2022-12-05T06:28:44;2.63;99.99
68977;SHT31;56029;52.568;13.588;2022-12-05T06:31:15;2.72;99.99
68977;SHT31;56029;52.568;13.588;2022-12-05T06:33:42;2.67;99.99
68977;SHT31;56029;52.568;13.588;2022-12-05T06:36:10;2.67;99.99
68977;SHT31;56029;52.568;13.588;2022-12-05T06:38:37;2.66;99.99
68977;SHT31;56029;52.568;13.588;2022-12-05T06:41:10;2.64;99.99
68977;SHT31;56029;52.568;13.588;2022-12-05T06:43:38;2.66;99.99
68977;SHT31;56029;52.568;13.588;2022-12-05T06:46:04;2.66;99.99
68977;SHT31;56029;52.568;13.588;2022-12-05T06:48:30;2.77;99.99
68977;SHT31;56029;52.568;13.588;2022-12-05T06:50:55;2.75;99.99
68977;SHT31;56029;52.568;13.588;2022-12-05T06:53:21;2.76;99.99
68977;SHT31;56029;52.568;13.588;2022-12-05T06:55:57;2.72;99.99
68977;SHT31;56029;52.568;13.588;2022-12-05T06:58:23;2.77;99.99
68977;SHT31;56029;52.568;13.588;2022-12-05T07:00:49;2.73;99.99
68977;SHT31;56029;52.568;13.588;2022-12-05T07:03:33;2.70;99.99
68977;SHT31;56029;52.568;13.588;2022-12-05T07:06:02;2.64;99.99
68977;SHT31;56029;52.568;13.588;2022-12-05T07:08:28;2.69;99.99
68977;SHT31;56029;52.568;13.588;2022-12-05T07:10:54;2.72;99.99
68977;SHT31;56029;52.568;13.588;2022-12-05T07:13:20;2.75;99.99
68977;SHT31;56029;52.568;13.588;2022-12-05T07:15:46;2.73;99.99
68977;SHT31;56029;52.568;13.588;2022-12-05T07:18:13;2.75;99.99
68977;SHT31;56029;52.568;13.588;2022-12-05T07:20:39;2.75;99.99
68977;SHT31;56029;52.568;13.588;2022-12-05T07:23:05;2.75;99.99
68977;SHT31;56029;52.568;13.588;2022-12-05T07:25:31;2.64;99.99
68977;SHT31;56029;52.568;13.588;2022-12-05T07:27:56;2.70;99.99
68977;SHT31;56029;52.568;13.588;2022-12-05T07:30:22;2.72;99.99
68977;SHT31;56029;52.568;13.588;2022-12-05T07:32:47;2.72;99.99
68977;SHT31;56029;52.568;13.588;2022-12-05T07:35:13;2.80;99.99
68977;SHT31;56029;52.568;13.588;2022-12-05T07:37:39;2.79;99.99
68977;SHT31;56029;52.568;13.588;2022-12-05T07:40:05;2.80;99.99
68977;SHT31;56029;52.568;13.588;2022-12-05T07:42:30;2.77;99.99
68977;SHT31;56029;52.568;13.588;2022-12-05T07:44:56;2.62;99.99
68977;SHT31;56029;52.568;13.588;2022-12-05T07:47:21;2.66;99.99
68977;SHT31;56029;52.568;13.588;2022-12-05T07:49:47;2.73;99.99
68977;SHT31;56029;52.568;13.588;2022-12-05T07:52:13;2.63;99.99
68977;SHT31;56029;52.568;13.588;2022-12-05T07:54:38;2.70;99.99
68977;SHT31;56029;52.568;13.588;2022-12-05T07:57:04;2.62;99.99
68977;SHT31;56029;52.568;13.588;2022-12-05T07:59:29;2.64;99.99
68977;SHT31;56029;52.568;13.588;2022-12-05T08:01:55;2.64;99.99
68977;SHT31;56029;52.568;13.588;2022-12-05T08:04:20;2.69;99.99
68977;SHT31;56029;52.568;13.588;2022-12-05T08:06:46;2.66;99.99
68977;SHT31;56029;52.568;13.588;2022-12-05T08:09:11;2.70;99.99
68977;SHT31;56029;52.568;13.588;2022-12-05T08:11:37;2.69;99.99
68977;SHT31;56029;52.568;13.588;2022-12-05T08:14:04;2.76;99.99
68977;SHT31;56029;52.568;13.588;2022-12-05T08:16:30;2.77;99.99
68977;SHT31;56029;52.568;13.588;2022-12-05T08:19:04;2.73;99.99
68977;SHT31;56029;52.568;13.588;2022-12-05T08:21:31;2.79;99.99
68977;SHT31;56029;52.568;13.588;2022-12-05T08:23:57;2.80;99.99
68977;SHT31;56029;52.568;13.588;2022-12-05T08:26:27;2.80;99.99
68977;SHT31;56029;52.568;13.588;2022-12-05T08:28:59;2.77;99.99
68977;SHT31;56029;52.568;13.588;2022-12-05T08:31:27;2.81;99.99
68977;SHT31;56029;52.568;13.588;2022-12-05T08:33:55;2.87;99.99
68977;SHT31;56029;52.568;13.588;2022-12-05T08:36:21;2.86;99.99
68977;SHT31;56029;52.568;13.588;2022-12-05T08:38:47;2.86;99.99
68977;SHT31;56029;52.568;13.588;2022-12-05T08:41:15;2.86;99.99
68977;SHT31;56029;52.568;13.588;2022-12-05T08:43:41;2.84;99.99
68977;SHT31;56029;52.568;13.588;2022-12-05T08:46:07;2.90;99.99
68977;SHT31;56029;52.568;13.588;2022-12-05T08:48:33;2.84;99.99
68977;SHT31;56029;52.568;13.588;2022-12-05T08:51:04;2.80;99.99
68977;SHT31;56029;52.568;13.588;2022-12-05T08:53:30;2.83;99.99
68977;SHT31;56029;52.568;13.588;2022-12-05T08:55:59;2.83;99.99
68977;SHT31;56029;52.568;13.588;2022-12-05T08:58:25;2.86;99.99
68977;SHT31;56029;52.568;13.588;2022-12-05T09:00:50;2.83;99.99
68977;SHT31;56029;52.568;13.588;2022-12-05T09:03:16;2.81;99.99
68977;SHT31;56029;52.568;13.588;2022-12-05T09:05:42;2.86;99.99
68977;SHT31;56029;52.568;13.588;2022-12-05T09:08:07;2.90;99.99
68977;SHT31;56029;52.568;13.588;2022-12-05T09:10:33;2.91;99.99
68977;SHT31;56029;52.568;13.588;2022-12-05T09:12:58;2.83;99.99
68977;SHT31;56029;52.568;13.588;2022-12-05T09:15:24;2.84;99.99
68977;SHT31;56029;52.568;13.588;2022-12-05T09:17:49;2.86;99.99
68977;SHT31;56029;52.568;13.588;2022-12-05T09:20:15;2.87;99.99
68977;SHT31;56029;52.568;13.588;2022-12-05T09:22:40;2.84;99.99
68977;SHT31;56029;52.568;13.588;2022-12-05T09:25:07;2.86;99.99
68977;SHT31;56029;52.568;13.588;2022-12-05T09:27:32;2.90;99.99
68977;SHT31;56029;52.568;13.588;2022-12-05T09:29:58;2.90;99.99
68977;SHT31;56029;52.568;13.588;2022-12-05T09:32:23;2.93;99.99
68977;SHT31;56029;52.568;13.588;2022-12-05T09:34:49;2.94;99.99
68977;SHT31;56029;52.568;13.588;2022-12-05T09:37:18;2.93;99.99
68977;SHT31;56029;52.568;13.588;2022-12-05T09:39:46;2.91;99.99
68977;SHT31;56029;52.568;13.588;2022-12-05T09:42:36;2.94;99.99
68977;SHT31;56029;52.568;13.588;2022-12-05T09:45:14;2.93;99.99
68977;SHT31;56029;52.568;13.588;2022-12-05T09:47:50;2.96;99.99
68977;SHT31;56029;52.568;13.588;2022-12-05T09:50:21;2.97;99.99
68977;SHT31;56029;52.568;13.588;2022-12-05T09:52:58;2.94;99.99
68977;SHT31;56029;52.568;13.588;2022-12-05T09:55:30;2.94;99.99
68977;SHT31;56029;52.568;13.588;2022-12-05T09:57:59;2.96;99.99
68977;SHT31;56029;52.568;13.588;2022-12-05T10:00:28;2.96;99.99
68977;SHT31;56029;52.568;13.588;2022-12-05T10:08:25;3.03;99.99
68977;SHT31;56029;52.568;13.588;2022-12-05T10:11:03;3.01;99.99
68977;SHT31;56029;52.568;13.588;2022-12-05T10:13:37;3.00;99.99
68977;SHT31;56029;52.568;13.588;2022-12-05T10:16:20;3.01;99.99
68977;SHT31;56029;52.568;13.588;2022-12-05T10:18:52;3.01;99.99
68977;SHT31;56029;52.568;13.588;2022-12-05T10:23:53;3.03;99.99
68977;SHT31;56029;52.568;13.588;2022-12-05T10:26:21;3.03;99.99
68977;SHT31;56029;52.568;13.588;2022-12-05T10:31:44;3.05;99.99
68977;SHT31;56029;52.568;13.588;2022-12-05T10:34:28;3.03;99.99
68977;SHT31;56029;52.568;13.588;2022-12-05T10:37:00;3.05;99.99
68977;SHT31;56029;52.568;13.588;2022-12-05T10:39:26;3.07;99.99
68977;SHT31;56029;52.568;13.588;2022-12-05T10:41:52;3.05;99.99
68977;SHT31;56029;52.568;13.588;2022-12-05T10:44:18;3.10;99.99
68977;SHT31;56029;52.568;13.588;2022-12-05T10:46:44;3.11;99.99
68977;SHT31;56029;52.568;13.588;2022-12-05T10:49:11;3.12;99.99
68977;SHT31;56029;52.568;13.588;2022-12-05T10:51:38;3.12;99.99
68977;SHT31;56029;52.568;13.588;2022-12-05T10:54:17;3.12;99.99
68977;SHT31;56029;52.568;13.588;2022-12-05T10:56:46;3.14;99.99
68977;SHT31;56029;52.568;13.588;2022-12-05T10:59:15;3.15;99.99
68977;SHT31;56029;52.568;13.588;2022-12-05T11:01:47;3.20;99.99
68977;SHT31;56029;52.568;13.588;2022-12-05T11:04:38;3.17;99.99
68977;SHT31;56029;52.568;13.588;2022-12-05T11:07:05;3.20;99.99
68977;SHT31;56029;52.568;13.588;2022-12-05T11:09:33;3.20;99.99
68977;SHT31;56029;52.568;13.588;2022-12-05T11:12:02;3.22;99.99
68977;SHT31;56029;52.568;13.588;2022-12-05T11:14:30;3.24;99.99
68977;SHT31;56029;52.568;13.588;2022-12-05T11:16:59;3.20;99.99
68977;SHT31;56029;52.568;13.588;2022-12-05T11:19:34;3.22;99.99
68977;SHT31;56029;52.568;13.588;2022-12-05T11:22:00;3.25;99.99
68977;SHT31;56029;52.568;13.588;2022-12-05T11:24:37;3.29;99.99
68977;SHT31;56029;52.568;13.588;2022-12-05T11:27:30;3.28;99.99
68977;SHT31;56029;52.568;13.588;2022-12-05T11:29:59;3.29;99.99
68977;SHT31;56029;52.568;13.588;2022-12-05T11:32:29;3.31;99.99
68977;SHT31;56029;52.568;13.588;2022-12-05T11:37:56;3.34;99.99
68977;SHT31;56029;52.568;13.588;2022-12-05T11:46:32;3.45;99.99
68977;SHT31;56029;52.568;13.588;2022-12-05T11:51:47;3.49;99.99
68977;SHT31;56029;52.568;13.588;2022-12-05T11:54:37;3.45;99.99
68977;SHT31;56029;52.568;13.588;2022-12-05T11:57:22;3.49;99.99
68977;SHT31;56029;52.568;13.588;2022-12-05T12:00:06;3.46;99.99
68977;SHT31;56029;52.568;13.588;2022-12-05T12:05:37;3.51;99.99
68977;SHT31;56029;52.568;13.588;2022-12-05T12:11:05;3.46;99.99
68977;SHT31;56029;52.568;13.588;2022-12-05T12:13:56;3.46;99.99
68977;SHT31;56029;52.568;13.588;2022-12-05T12:16:50;3.49;99.99
68977;SHT31;56029;52.568;13.588;2022-12-05T12:22:40;3.48;99.99
68977;SHT31;56029;52.568;13.588;2022-12-05T12:33:45;3.45;99.99
68977;SHT31;56029;52.568;13.588;2022-12-05T12:36:17;3.46;99.99
68977;SHT31;56029;52.568;13.588;2022-12-05T12:41:40;3.42;99.99
68977;SHT31;56029;52.568;13.588;2022-12-05T12:44:47;3.43;99.99
68977;SHT31;56029;52.568;13.588;2022-12-05T12:47:15;3.41;99.99
68977;SHT31;56029;52.568;13.588;2022-12-05T12:49:53;3.45;99.99
68977;SHT31;56029;52.568;13.588;2022-12-05T12:52:27;3.46;99.99
68977;SHT31;56029;52.568;13.588;2022-12-05T12:54:57;3.46;99.99
68977;SHT31;56029;52.568;13.588;2022-12-05T13:00:26;3.45;99.99
68977;SHT31;56029;52.568;13.588;2022-12-05T13:03:04;3.46;99.99
68977;SHT31;56029;52.568;13.588;2022-12-05T13:05:37;3.52;99.99
68977;SHT31;56029;52.568;13.588;2022-12-05T13:10:42;3.52;99.99
68977;SHT31;56029;52.568;13.588;2022-12-05T13:13:13;3.52;99.99
68977;SHT31;56029;52.568;13.588;2022-12-05T13:15:44;3.55;99.99
68977;SHT31;56029;52.568;13.588;2022-12-05T13:18:17;3.59;99.99
68977;SHT31;56029;52.568;13.588;2022-12-05T13:20:47;3.59;99.99
68977;SHT31;56029;52.568;13.588;2022-12-05T13:23:18;3.60;99.99
68977;SHT31;56029;52.568;13.588;2022-12-05T13:25:46;3.60;99.99
68977;SHT31;56029;52.568;13.588;2022-12-05T13:28:34;3.56;99.99
68977;SHT31;56029;52.568;13.588;2022-12-05T13:31:10;3.62;99.99
68977;SHT31;56029;52.568;13.588;2022-12-05T13:33:43;3.62;99.99
68977;SHT31;56029;52.568;13.588;2022-12-05T13:36:15;3.63;99.99
68977;SHT31;56029;52.568;13.588;2022-12-05T13:39:05;3.66;99.99
68977;SHT31;56029;52.568;13.588;2022-12-05T13:41:52;3.63;99.99
68977;SHT31;56029;52.568;13.588;2022-12-05T13:44:43;3.65;99.99
68977;SHT31;56029;52.568;13.588;2022-12-05T13:47:30;3.66;99.99
68977;SHT31;56029;52.568;13.588;2022-12-05T13:52:44;3.66;99.99
68977;SHT31;56029;52.568;13.588;2022-12-05T13:55:26;3.68;99.99
68977;SHT31;56029;52.568;13.588;2022-12-05T13:57:56;3.68;99.99
68977;SHT31;56029;52.568;13.588;2022-12-05T14:00:44;3.68;99.99
68977;SHT31;56029;52.568;13.588;2022-12-05T14:05:57;3.65;99.99
68977;SHT31;56029;52.568;13.588;2022-12-05T14:15:46;3.63;99.99
68977;SHT31;56029;52.568;13.588;2022-12-05T14:21:39;3.63;99.99
68977;SHT31;56029;52.568;13.588;2022-12-05T14:24:16;3.63;99.99
68977;SHT31;56029;52.568;13.588;2022-12-05T14:29:51;3.68;99.99
68977;SHT31;56029;52.568;13.588;2022-12-05T14:32:28;3.60;99.99
68977;SHT31;56029;52.568;13.588;2022-12-05T14:35:00;3.65;99.99
68977;SHT31;56029;52.568;13.588;2022-12-05T14:39:58;3.62;99.99
68977;SHT31;56029;52.568;13.588;2022-12-05T14:42:35;3.63;99.99
68977;SHT31;56029;52.568;13.588;2022-12-05T14:47:49;3.65;99.99
68977;SHT31;56029;52.568;13.588;2022-12-05T14:50:45;3.65;99.99
68977;SHT31;56029;52.568;13.588;2022-12-05T14:55:46;3.66;99.99
68977;SHT31;56029;52.568;13.588;2022-12-05T14:58:19;3.65;99.99
68977;SHT31;56029;52.568;13.588;2022-12-05T15:00:54;3.68;99.99
68977;SHT31;56029;52.568;13.588;2022-12-05T15:03:26;3.66;99.99
68977;SHT31;56029;52.568;13.588;2022-12-05T15:05:55;3.68;99.99
68977;SHT31;56029;52.568;13.588;2022-12-05T15:08:21;3.66;99.99
68977;SHT31;56029;52.568;13.588;2022-12-05T15:10:49;3.70;99.99
68977;SHT31;56029;52.568;13.588;2022-12-05T15:13:18;3.68;99.99
68977;SHT31;56029;52.568;13.588;2022-12-05T15:15:50;3.66;99.99
68977;SHT31;56029;52.568;13.588;2022-12-05T15:18:37;3.65;99.99
68977;SHT31;56029;52.568;13.588;2022-12-05T15:21:09;3.68;99.99
68977;SHT31;56029;52.568;13.588;2022-12-05T15:23:45;3.69;99.99
68977;SHT31;56029;52.568;13.588;2022-12-05T15:28:58;3.66;99.99
68977;SHT31;56029;52.568;13.588;2022-12-05T15:31:27;3.66;99.99
68977;SHT31;56029;52.568;13.588;2022-12-05T15:33:56;3.63;99.99
68977;SHT31;56029;52.568;13.588;2022-12-05T15:36:27;3.65;99.99
68977;SHT31;56029;52.568;13.588;2022-12-05T15:38:55;3.68;99.99
68977;SHT31;56029;52.568;13.588;2022-12-05T15:41:21;3.68;99.99
68977;SHT31;56029;52.568;13.588;2022-12-05T15:43:57;3.65;99.99
68977;SHT31;56029;52.568;13.588;2022-12-05T15:46:24;3.66;99.99
68977;SHT31;56029;52.568;13.588;2022-12-05T15:48:53;3.66;99.99
68977;SHT31;56029;52.568;13.588;2022-12-05T15:51:23;3.68;99.99
68977;SHT31;56029;52.568;13.588;2022-12-05T15:54:02;3.65;99.99
68977;SHT31;56029;52.568;13.588;2022-12-05T15:56:38;3.65;99.99
68977;SHT31;56029;52.568;13.588;2022-12-05T15:59:19;3.66;99.99
68977;SHT31;56029;52.568;13.588;2022-12-05T16:01:50;3.68;99.99
68977;SHT31;56029;52.568;13.588;2022-12-05T16:04:28;3.66;99.99
68977;SHT31;56029;52.568;13.588;2022-12-05T16:06:57;3.69;99.99
68977;SHT31;56029;52.568;13.588;2022-12-05T16:09:30;3.69;99.99
68977;SHT31;56029;52.568;13.588;2022-12-05T16:11:59;3.72;99.99
68977;SHT31;56029;52.568;13.588;2022-12-05T16:14:35;3.70;99.99
68977;SHT31;56029;52.568;13.588;2022-12-05T16:17:02;3.72;99.99
68977;SHT31;56029;52.568;13.588;2022-12-05T16:19:29;3.68;99.99
68977;SHT31;56029;52.568;13.588;2022-12-05T16:22:01;3.66;99.99
68977;SHT31;56029;52.568;13.588;2022-12-05T16:24:30;3.70;99.99
68977;SHT31;56029;52.568;13.588;2022-12-05T16:27:03;3.69;99.99
68977;SHT31;56029;52.568;13.588;2022-12-05T16:29:33;3.70;99.99
68977;SHT31;56029;52.568;13.588;2022-12-05T16:32:00;3.70;99.99
68977;SHT31;56029;52.568;13.588;2022-12-05T16:34:27;3.75;99.99
68977;SHT31;56029;52.568;13.588;2022-12-05T16:36:55;3.70;99.99
68977;SHT31;56029;52.568;13.588;2022-12-05T16:39:21;3.69;99.99
68977;SHT31;56029;52.568;13.588;2022-12-05T16:41:48;3.70;99.99
68977;SHT31;56029;52.568;13.588;2022-12-05T16:46:54;3.72;99.99
68977;SHT31;56029;52.568;13.588;2022-12-05T16:54:24;3.73;99.99
68977;SHT31;56029;52.568;13.588;2022-12-05T16:56:50;3.70;99.99
68977;SHT31;56029;52.568;13.588;2022-12-05T16:59:29;3.73;99.99
68977;SHT31;56029;52.568;13.588;2022-12-05T17:01:56;3.75;99.99
68977;SHT31;56029;52.568;13.588;2022-12-05T17:04:21;3.73;99.99
68977;SHT31;56029;52.568;13.588;2022-12-05T17:06:48;3.75;99.99
68977;SHT31;56029;52.568;13.588;2022-12-05T17:09:13;3.78;99.99
68977;SHT31;56029;52.568;13.588;2022-12-05T17:11:41;3.76;99.99
68977;SHT31;56029;52.568;13.588;2022-12-05T17:14:14;3.78;99.99
68977;SHT31;56029;52.568;13.588;2022-12-05T17:16:41;3.79;99.99
68977;SHT31;56029;52.568;13.588;2022-12-05T17:19:10;3.79;99.99
68977;SHT31;56029;52.568;13.588;2022-12-05T17:21:37;3.80;99.99
68977;SHT31;56029;52.568;13.588;2022-12-05T17:24:03;3.83;99.99
68977;SHT31;56029;52.568;13.588;2022-12-05T17:26:29;3.83;99.99
68977;SHT31;56029;52.568;13.588;2022-12-05T17:28:55;3.86;99.99
68977;SHT31;56029;52.568;13.588;2022-12-05T17:31:22;3.89;99.99
68977;SHT31;56029;52.568;13.588;2022-12-05T17:33:50;3.87;99.99
68977;SHT31;56029;52.568;13.588;2022-12-05T17:36:16;3.89;99.99